LIRQ 192350Z 12004KT CAVOK 17/11 Q1026 LIRQ 192320Z 10003KT CAVOK 17/11 Q1026 LIRQ 192250Z 08003KT CAVOK 17/11 Q1026 LIRQ 192220Z 13003KT 100V160 CAVOK 18/11 Q1026 LIRQ 192150Z VRB02KT CAVOK 20/11 Q1026 LIRQ 192120Z VRB01KT CAVOK 20/10 Q1026 LIRQ 192050Z VRB02KT CAVOK 21/10 Q1026 LIRQ 192020Z VRB02KT CAVOK 22/10 Q1025 LIRQ 191950Z VRB02KT CAVOK 23/10 Q1025 LIRQ 191920Z 23005KT CAVOK 24/10 Q1024 LIRQ 191850Z 25008KT CAVOK 25/10 Q1024 LIRQ 191820Z 25010KT CAVOK 26/11 Q1024 LIRQ 191750Z 25008KT CAVOK 27/13 Q1023 LIRQ 191720Z 26009KT CAVOK 28/10 Q1023 LIRQ 191650Z 05003KT 020V110 CAVOK 29/12 Q1023 LIRQ 191620Z 04004KT 010V070 CAVOK 30/13 Q1023 LIRQ 191550Z VRB02KT CAVOK 31/08 Q1023 LIRQ 191520Z 04004KT 360V100 CAVOK 31/07 Q1023 LIRQ 191450Z 03003KT 340V100 CAVOK 31/08 Q1023 LIRQ 191420Z 10003KT 010V170 CAVOK 30/07 Q1023 LIRQ 191350Z VRB03KT CAVOK 31/09 Q1024 LIRQ 191320Z 07005KT 320V120 CAVOK 30/08 Q1024 LIRQ 191250Z VRB03KT CAVOK 30/07 Q1024 LIRQ 191220Z 05005KT 320V100 CAVOK 30/07 Q1024 LIRQ 191150Z 05004KT 340V140 CAVOK 29/07 Q1024 LIRQ 191120Z VRB03KT CAVOK 29/08 Q1025 LIRQ 191050Z VRB03KT CAVOK 28/08 Q1025 LIRQ 191020Z 03005KT 310V090 CAVOK 28/07 Q1025 LIRQ 190950Z 02004KT 340V070 CAVOK 27/09 Q1025 LIRQ 190920Z 05008KT 010V110 CAVOK 27/08 Q1025 LIRQ 190850Z VRB03KT CAVOK 26/09 Q1025 LIRQ 190820Z VRB02KT CAVOK 25/09 Q1025 LIRQ 190750Z 19003KT 130V250 CAVOK 23/08 Q1025 LIRQ 190720Z 20004KT 130V240 CAVOK 22/07 Q1025 LIRQ 190650Z 18004KT 140V220 CAVOK 21/08 Q1025 LIRQ 190620Z 18003KT 090V210 CAVOK 20/09 Q1025 LIRQ 190550Z 12004KT 060V150 CAVOK 18/08 Q1025 LIRQ 190520Z 13005KT CAVOK 17/07 Q1025 LIRQ 190450Z 12004KT 060V140 9999 FEW070 16/07 Q1024 LIRQ 190420Z VRB02KT 9999 FEW060 16/07 Q1024 LIRQ 190350Z 21004KT 9999 FEW060 17/06 Q1024 LIRQ 190320Z 20003KT 150V300 9999 FEW060 19/04 Q1024 LIRQ 190250Z VRB05KT CAVOK 19/04 Q1024 LIRQ 190220Z VRB04KT CAVOK 18/05 Q1024 LIRQ 190150Z VRB07KT CAVOK 21/03 Q1024 LIRQ 190120Z VRB04KT CAVOK 21/02 Q1024 LIRQ 190050Z 09003KT 030V140 CAVOK 20/04 Q1024 LIRQ 190020Z 06005KT 330V090 CAVOK 20/04 Q1024 LIRQ 182350Z 07004KT 030V090 CAVOK 20/05 Q1024 LIRQ 182320Z 05005KT CAVOK 20/06 Q1024 LIRQ 182250Z VRB03KT CAVOK 21/05 Q1024 LIRQ 182220Z 04005KT 360V080 CAVOK 22/06 Q1024 LIRQ 182150Z VRB02KT CAVOK 21/08 Q1023 LIRQ 182120Z 35004KT 290V050 CAVOK 23/07 Q1023 LIRQ 182050Z 10005KT 070V140 CAVOK 22/08 Q1023 LIRQ 182020Z 06008KT 020V090 CAVOK 23/08 Q1023 LIRQ 181950Z 07004KT 360V140 CAVOK 22/08 Q1022 LIRQ 181920Z 06006KT CAVOK 23/08 Q1022 LIRQ 181850Z 05005KT 010V070 CAVOK 23/09 Q1021 LIRQ 181820Z 05005KT 010V070 CAVOK 25/09 Q1021 LIRQ 181750Z 05009KT CAVOK 26/09 Q1021 LIRQ 181720Z 06011KT CAVOK 26/10 Q1020 LIRQ 181650Z 06013KT CAVOK 27/11 Q1020 LIRQ 181620Z 06013KT CAVOK 28/12 Q1020 LIRQ 181550Z 08016KT CAVOK 28/12 Q1019 LIRQ 181520Z 07014KT 9999 FEW050 29/13 Q1020 LIRQ 181450Z 07014KT 9999 FEW050 29/14 Q1019 LIRQ 181420Z 08013KT 050V110 9999 FEW050 30/15 Q1019 LIRQ 181350Z 06011KT 9999 FEW050TCU 30/15 Q1019 LIRQ 181320Z 07011KT 9999 FEW050 30/14 Q1019 LIRQ 181250Z 08010KT 040V110 9999 FEW060 30/14 Q1019

METAR Messwerte "FIRENZE/PERETOLA" LIRQ

Zurück zur Übersicht

Ortsname
Ländercode / m ü. NN
Zeit Temperatur Taupunkt Rel.
Luftfeuchte
Luftdruck:
Altimeter
NN
Station
Wind in Beaufort
(Knoten)
Sichtweite
(Meter)
Wolken
(Meter über Grund)
Wettererscheinung
FIRENZE/PERETOLA
IT 33
Fr 20.05. 01:50171168 %1026
1026
1022
OSO 2 (4)>= 10000Nicht signifikant 
FIRENZE/PERETOLA
IT 33
Fr 20.05. 01:20171168 %1026
1026
1022
O 2 (3)>= 10000Nicht signifikant 
FIRENZE/PERETOLA
IT 33
Fr 20.05. 00:50171168 %1026
1026
1022
O 2 (3)>= 10000Nicht signifikant 
FIRENZE/PERETOLA
IT 33
Fr 20.05. 00:20181164 %1026
1026
1022
SO 2 (3)
O - SSO
>= 10000Nicht signifikant 
FIRENZE/PERETOLA
IT 33
Do 19.05. 23:50201156 %1026
1026
1022
Uml 1 (2)>= 10000Nicht signifikant 
FIRENZE/PERETOLA
IT 33
Do 19.05. 23:20201053 %1026
1026
1022
Uml 1 (1)>= 10000Nicht signifikant 
FIRENZE/PERETOLA
IT 33
Do 19.05. 22:50211049 %1026
1026
1022
Uml 1 (2)>= 10000Nicht signifikant 
FIRENZE/PERETOLA
IT 33
Do 19.05. 22:20221046 %1025
1025
1021
Uml 1 (2)>= 10000Nicht signifikant 
FIRENZE/PERETOLA
IT 33
Do 19.05. 21:50231044 %1025
1025
1021
Uml 1 (2)>= 10000Nicht signifikant 
FIRENZE/PERETOLA
IT 33
Do 19.05. 21:20241041 %1024
1024
1020
SW 2 (5)>= 10000Nicht signifikant 
FIRENZE/PERETOLA
IT 33
Do 19.05. 20:50251039 %1024
1024
1020
WSW 3 (8)>= 10000Nicht signifikant 
FIRENZE/PERETOLA
IT 33
Do 19.05. 20:20261139 %1024
1024
1020
WSW 3 (10)>= 10000Nicht signifikant 
FIRENZE/PERETOLA
IT 33
Do 19.05. 19:50271342 %1023
1023
1019
WSW 3 (8)>= 10000Nicht signifikant 
FIRENZE/PERETOLA
IT 33
Do 19.05. 19:20281032 %1023
1023
1019
W 3 (9)>= 10000Nicht signifikant 
FIRENZE/PERETOLA
IT 33
Do 19.05. 18:50291235 %1023
1023
1019
NO 2 (3)
NNO - OSO
>= 10000Nicht signifikant 
FIRENZE/PERETOLA
IT 33
Do 19.05. 18:20301335 %1023
1023
1019
NO 2 (4)
N - ONO
>= 10000Nicht signifikant 
FIRENZE/PERETOLA
IT 33
Do 19.05. 17:5031824 %1023
1023
1019
Uml 1 (2)>= 10000Nicht signifikant 
FIRENZE/PERETOLA
IT 33
Do 19.05. 17:2031722 %1023
1023
1019
NO 2 (4)
N - O
>= 10000Nicht signifikant 
FIRENZE/PERETOLA
IT 33
Do 19.05. 16:5031824 %1023
1023
1019
NNO 2 (3)
NNW - O
>= 10000Nicht signifikant 
FIRENZE/PERETOLA
IT 33
Do 19.05. 16:2030724 %1023
1023
1019
O 2 (3)
N - S
>= 10000Nicht signifikant 
FIRENZE/PERETOLA
IT 33
Do 19.05. 15:5031926 %1024
1024
1020
Uml 2 (3)>= 10000Nicht signifikant 
FIRENZE/PERETOLA
IT 33
Do 19.05. 15:2030825 %1024
1024
1020
ONO 2 (5)
NW - OSO
>= 10000Nicht signifikant 
FIRENZE/PERETOLA
IT 33
Do 19.05. 14:5030724 %1024
1024
1020
Uml 2 (3)>= 10000Nicht signifikant 
FIRENZE/PERETOLA
IT 33
Do 19.05. 14:2030724 %1024
1024
1020
NO 2 (5)
NW - O
>= 10000Nicht signifikant 
FIRENZE/PERETOLA
IT 33
Do 19.05. 13:5029725 %1024
1024
1020
NO 2 (4)
NNW - SO
>= 10000Nicht signifikant 
FIRENZE/PERETOLA
IT 33
Do 19.05. 13:2029827 %1025
1025
1021
Uml 2 (3)>= 10000Nicht signifikant 
FIRENZE/PERETOLA
IT 33
Do 19.05. 12:5028828 %1025
1025
1021
Uml 2 (3)>= 10000Nicht signifikant 
FIRENZE/PERETOLA
IT 33
Do 19.05. 12:2028727 %1025
1025
1021
NNO 2 (5)
NW - O
>= 10000Nicht signifikant 
FIRENZE/PERETOLA
IT 33
Do 19.05. 11:5027932 %1025
1025
1021
NNO 2 (4)
NNW - ONO
>= 10000Nicht signifikant 
FIRENZE/PERETOLA
IT 33
Do 19.05. 11:2027830 %1025
1025
1021
NO 3 (8)
N - OSO
>= 10000Nicht signifikant 
FIRENZE/PERETOLA
IT 33
Do 19.05. 10:5026934 %1025
1025
1021
Uml 2 (3)>= 10000Nicht signifikant 
FIRENZE/PERETOLA
IT 33
Do 19.05. 10:2025936 %1025
1025
1021
Uml 1 (2)>= 10000Nicht signifikant 
FIRENZE/PERETOLA
IT 33
Do 19.05. 09:5023838 %1025
1025
1021
S 2 (3)
SO - WSW
>= 10000Nicht signifikant 
FIRENZE/PERETOLA
IT 33
Do 19.05. 09:2022738 %1025
1025
1021
SSW 2 (4)
SO - WSW
>= 10000Nicht signifikant 
FIRENZE/PERETOLA
IT 33
Do 19.05. 08:5021843 %1025
1025
1021
S 2 (4)
SO - SW
>= 10000Nicht signifikant 
FIRENZE/PERETOLA
IT 33
Do 19.05. 08:2020949 %1025
1025
1021
S 2 (3)
O - SSW
>= 10000Nicht signifikant 
FIRENZE/PERETOLA
IT 33
Do 19.05. 07:5018852 %1025
1025
1021
OSO 2 (4)
ONO - SSO
>= 10000Nicht signifikant 
FIRENZE/PERETOLA
IT 33
Do 19.05. 07:2017752 %1025
1025
1021
SO 2 (5)>= 10000Nicht signifikant 
FIRENZE/PERETOLA
IT 33
Do 19.05. 06:5016755 %1024
1024
1020
OSO 2 (4)
ONO - SO
>= 10000Leicht bewölkt (2100) 
FIRENZE/PERETOLA
IT 33
Do 19.05. 06:2016755 %1024
1024
1020
Uml 1 (2)>= 10000Leicht bewölkt (1800) 
FIRENZE/PERETOLA
IT 33
Do 19.05. 05:5017648 %1024
1024
1020
SSW 2 (4)>= 10000Leicht bewölkt (1800) 
FIRENZE/PERETOLA
IT 33
Do 19.05. 05:2019437 %1024
1024
1020
SSW 2 (3)
SSO - WNW
>= 10000Leicht bewölkt (1800) 
FIRENZE/PERETOLA
IT 33
Do 19.05. 04:5019437 %1024
1024
1020
Uml 2 (5)>= 10000Nicht signifikant 
FIRENZE/PERETOLA
IT 33
Do 19.05. 04:2018542 %1024
1024
1020
Uml 2 (4)>= 10000Nicht signifikant 
FIRENZE/PERETOLA
IT 33
Do 19.05. 03:5021330 %1024
1024
1020
Uml 3 (7)>= 10000Nicht signifikant 
FIRENZE/PERETOLA
IT 33
Do 19.05. 03:2021228 %1024
1024
1020
Uml 2 (4)>= 10000Nicht signifikant 
FIRENZE/PERETOLA
IT 33
Do 19.05. 02:5020435 %1024
1024
1020
O 2 (3)
NNO - SO
>= 10000Nicht signifikant 
FIRENZE/PERETOLA
IT 33
Do 19.05. 02:2020435 %1024
1024
1020
ONO 2 (5)
NNW - O
>= 10000Nicht signifikant 
FIRENZE/PERETOLA
IT 33
Do 19.05. 01:5020537 %1024
1024
1020
ONO 2 (4)
NNO - O
>= 10000Nicht signifikant 
FIRENZE/PERETOLA
IT 33
Do 19.05. 01:2020640 %1024
1024
1020
NO 2 (5)>= 10000Nicht signifikant 
FIRENZE/PERETOLA
IT 33
Do 19.05. 00:5021535 %1024
1024
1020
Uml 2 (3)>= 10000Nicht signifikant 
FIRENZE/PERETOLA
IT 33
Do 19.05. 00:2022635 %1024
1024
1020
NO 2 (5)
N - O
>= 10000Nicht signifikant 
FIRENZE/PERETOLA
IT 33
Mi 18.05. 23:5021843 %1023
1023
1019
Uml 1 (2)>= 10000Nicht signifikant 
FIRENZE/PERETOLA
IT 33
Mi 18.05. 23:2023736 %1023
1023
1019
N 2 (4)
WNW - NO
>= 10000Nicht signifikant 
FIRENZE/PERETOLA
IT 33
Mi 18.05. 22:5022841 %1023
1023
1019
O 2 (5)
ONO - SO
>= 10000Nicht signifikant 
FIRENZE/PERETOLA
IT 33
Mi 18.05. 22:2023838 %1023
1023
1019
ONO 3 (8)
NNO - O
>= 10000Nicht signifikant 
FIRENZE/PERETOLA
IT 33
Mi 18.05. 21:5022841 %1022
1022
1018
ONO 2 (4)
N - SO
>= 10000Nicht signifikant 
FIRENZE/PERETOLA
IT 33
Mi 18.05. 21:2023838 %1022
1022
1018
ONO 2 (6)>= 10000Nicht signifikant 
FIRENZE/PERETOLA
IT 33
Mi 18.05. 20:5023941 %1021
1021
1017
NO 2 (5)
N - ONO
>= 10000Nicht signifikant 
FIRENZE/PERETOLA
IT 33
Mi 18.05. 20:2025936 %1021
1021
1017
NO 2 (5)
N - ONO
>= 10000Nicht signifikant 
FIRENZE/PERETOLA
IT 33
Mi 18.05. 19:5026934 %1021
1021
1017
NO 3 (9)>= 10000Nicht signifikant 
FIRENZE/PERETOLA
IT 33
Mi 18.05. 19:20261037 %1020
1020
1016
ONO 4 (11)>= 10000Nicht signifikant 
FIRENZE/PERETOLA
IT 33
Mi 18.05. 18:50271137 %1020
1020
1016
ONO 4 (13)>= 10000Nicht signifikant 
FIRENZE/PERETOLA
IT 33
Mi 18.05. 18:20281237 %1020
1020
1016
ONO 4 (13)>= 10000Nicht signifikant 
FIRENZE/PERETOLA
IT 33
Mi 18.05. 17:50281237 %1019
1019
1015
O 5 (16)>= 10000Nicht signifikant 
FIRENZE/PERETOLA
IT 33
Mi 18.05. 17:20291337 %1020
1020
1016
ONO 4 (14)>= 10000Leicht bewölkt (1500) 
FIRENZE/PERETOLA
IT 33
Mi 18.05. 16:50291440 %1019
1019
1015
ONO 4 (14)>= 10000Leicht bewölkt (1500) 
FIRENZE/PERETOLA
IT 33
Mi 18.05. 16:20301540 %1019
1019
1015
O 4 (13)
NO - OSO
>= 10000Leicht bewölkt (1500) 
FIRENZE/PERETOLA
IT 33
Mi 18.05. 15:50301540 %1019
1019
1015
ONO 4 (11)>= 10000Leicht bewölkt (1500) 
FIRENZE/PERETOLA
IT 33
Mi 18.05. 15:20301438 %1019
1019
1015
ONO 4 (11)>= 10000Leicht bewölkt (1500) 
FIRENZE/PERETOLA
IT 33
Mi 18.05. 14:50301438 %1019
1019
1015
O 3 (10)
NO - OSO
>= 10000Leicht bewölkt (1800) 

Altimeter: Einstellung am Altimeter (Höhenmesser), die Höhe 0 muss auf diesen Luftdruckwert zeigen, damit das Gerät die Stationshöhe richtig anzeigt.

NN: Luftdruck reduziert auf "Normal Null", auf Meereshöhe, dieser von der Temperatur abhängige Wert wird bisweilen unkorrekt einfach als "Luftdruck" bezeichnet. Eigentlich nur eine fiktive Größe, die es erlaubt, Stationen auf unterschiedlichen Höhen miteinander zu vergleichen.

Station: Realer Luftdruck an der Station.